sensor_id;sensor_type;location;lat;lon;timestamp;P1;durP1;ratioP1;P2;durP2;ratioP2
8610;SDS011;4343;53.648;10.098;2023-06-22T00:00:56;2.67;;;2.55;;
8610;SDS011;4343;53.648;10.098;2023-06-22T00:03:24;3.08;;;2.90;;
8610;SDS011;4343;53.648;10.098;2023-06-22T00:05:50;2.97;;;2.70;;
8610;SDS011;4343;53.648;10.098;2023-06-22T00:08:17;2.60;;;2.50;;
8610;SDS011;4343;53.648;10.098;2023-06-22T00:10:43;2.92;;;2.83;;
8610;SDS011;4343;53.648;10.098;2023-06-22T00:13:10;2.70;;;2.60;;
8610;SDS011;4343;53.648;10.098;2023-06-22T00:15:37;2.70;;;2.60;;
8610;SDS011;4343;53.648;10.098;2023-06-22T00:18:04;2.53;;;2.42;;
8610;SDS011;4343;53.648;10.098;2023-06-22T00:20:31;2.30;;;2.30;;
8610;SDS011;4343;53.648;10.098;2023-06-22T00:22:57;2.95;;;2.85;;
8610;SDS011;4343;53.648;10.098;2023-06-22T00:25:24;2.78;;;2.67;;
8610;SDS011;4343;53.648;10.098;2023-06-22T00:27:50;3.30;;;3.13;;
8610;SDS011;4343;53.648;10.098;2023-06-22T00:30:15;3.22;;;3.03;;
8610;SDS011;4343;53.648;10.098;2023-06-22T00:32:42;2.97;;;2.85;;
8610;SDS011;4343;53.648;10.098;2023-06-22T00:35:08;2.65;;;2.55;;
8610;SDS011;4343;53.648;10.098;2023-06-22T00:37:35;2.72;;;2.63;;
8610;SDS011;4343;53.648;10.098;2023-06-22T00:40:01;3.45;;;3.35;;
8610;SDS011;4343;53.648;10.098;2023-06-22T00:42:28;3.00;;;2.90;;
8610;SDS011;4343;53.648;10.098;2023-06-22T00:44:54;3.25;;;2.97;;
8610;SDS011;4343;53.648;10.098;2023-06-22T00:47:20;3.10;;;2.90;;
8610;SDS011;4343;53.648;10.098;2023-06-22T00:49:47;2.90;;;2.75;;
8610;SDS011;4343;53.648;10.098;2023-06-22T00:52:15;2.65;;;2.55;;
8610;SDS011;4343;53.648;10.098;2023-06-22T00:54:46;2.70;;;2.60;;
8610;SDS011;4343;53.648;10.098;2023-06-22T00:57:13;2.90;;;2.70;;
8610;SDS011;4343;53.648;10.098;2023-06-22T00:59:42;3.28;;;3.08;;
8610;SDS011;4343;53.648;10.098;2023-06-22T01:02:11;2.95;;;2.85;;
8610;SDS011;4343;53.648;10.098;2023-06-22T01:04:37;2.97;;;2.85;;
8610;SDS011;4343;53.648;10.098;2023-06-22T01:07:17;2.67;;;2.58;;
8610;SDS011;4343;53.648;10.098;2023-06-22T01:10:07;2.90;;;2.80;;
8610;SDS011;4343;53.648;10.098;2023-06-22T01:12:54;3.17;;;2.80;;
8610;SDS011;4343;53.648;10.098;2023-06-22T01:15:28;2.92;;;2.80;;
8610;SDS011;4343;53.648;10.098;2023-06-22T01:17:54;3.20;;;3.00;;
8610;SDS011;4343;53.648;10.098;2023-06-22T01:20:23;3.17;;;3.00;;
8610;SDS011;4343;53.648;10.098;2023-06-22T01:25:26;2.90;;;2.80;;
8610;SDS011;4343;53.648;10.098;2023-06-22T01:28:05;2.70;;;2.60;;
8610;SDS011;4343;53.648;10.098;2023-06-22T01:30:56;2.90;;;2.80;;
8610;SDS011;4343;53.648;10.098;2023-06-22T01:33:34;3.00;;;2.90;;
8610;SDS011;4343;53.648;10.098;2023-06-22T01:36:02;3.00;;;2.90;;
8610;SDS011;4343;53.648;10.098;2023-06-22T01:38:28;3.20;;;3.00;;
8610;SDS011;4343;53.648;10.098;2023-06-22T01:40:55;2.80;;;2.70;;
8610;SDS011;4343;53.648;10.098;2023-06-22T01:43:22;3.75;;;3.55;;
8610;SDS011;4343;53.648;10.098;2023-06-22T01:45:50;3.00;;;2.80;;
8610;SDS011;4343;53.648;10.098;2023-06-22T01:48:16;2.60;;;2.50;;
8610;SDS011;4343;53.648;10.098;2023-06-22T01:50:43;3.30;;;3.10;;
8610;SDS011;4343;53.648;10.098;2023-06-22T01:53:08;3.22;;;3.03;;
8610;SDS011;4343;53.648;10.098;2023-06-22T01:55:34;2.92;;;2.83;;
8610;SDS011;4343;53.648;10.098;2023-06-22T01:57:59;2.70;;;2.60;;
8610;SDS011;4343;53.648;10.098;2023-06-22T02:00:25;2.83;;;2.72;;
8610;SDS011;4343;53.648;10.098;2023-06-22T02:02:59;3.08;;;2.97;;
8610;SDS011;4343;53.648;10.098;2023-06-22T02:05:29;3.13;;;2.80;;
8610;SDS011;4343;53.648;10.098;2023-06-22T02:10:45;3.75;;;3.55;;
8610;SDS011;4343;53.648;10.098;2023-06-22T02:13:13;3.00;;;2.85;;
8610;SDS011;4343;53.648;10.098;2023-06-22T02:15:40;3.28;;;3.10;;
8610;SDS011;4343;53.648;10.098;2023-06-22T02:18:06;3.28;;;3.10;;
8610;SDS011;4343;53.648;10.098;2023-06-22T02:20:32;3.33;;;3.13;;
8610;SDS011;4343;53.648;10.098;2023-06-22T02:23:00;3.00;;;2.90;;
8610;SDS011;4343;53.648;10.098;2023-06-22T02:25:26;3.50;;;3.30;;
8610;SDS011;4343;53.648;10.098;2023-06-22T02:27:52;3.35;;;3.05;;
8610;SDS011;4343;53.648;10.098;2023-06-22T02:30:17;2.92;;;2.83;;
8610;SDS011;4343;53.648;10.098;2023-06-22T02:32:43;3.30;;;3.20;;
8610;SDS011;4343;53.648;10.098;2023-06-22T02:35:09;3.38;;;3.17;;
8610;SDS011;4343;53.648;10.098;2023-06-22T02:37:35;3.78;;;3.58;;
8610;SDS011;4343;53.648;10.098;2023-06-22T02:40:06;3.50;;;3.30;;
8610;SDS011;4343;53.648;10.098;2023-06-22T02:42:33;4.53;;;3.83;;
8610;SDS011;4343;53.648;10.098;2023-06-22T02:44:59;3.40;;;3.20;;
8610;SDS011;4343;53.648;10.098;2023-06-22T02:47:25;3.00;;;2.90;;
8610;SDS011;4343;53.648;10.098;2023-06-22T02:49:51;3.55;;;3.38;;
8610;SDS011;4343;53.648;10.098;2023-06-22T02:52:17;3.58;;;3.38;;
8610;SDS011;4343;53.648;10.098;2023-06-22T02:54:42;3.58;;;3.38;;
8610;SDS011;4343;53.648;10.098;2023-06-22T02:57:10;3.58;;;3.38;;
8610;SDS011;4343;53.648;10.098;2023-06-22T02:59:38;3.65;;;3.45;;
8610;SDS011;4343;53.648;10.098;2023-06-22T03:02:05;3.65;;;3.35;;
8610;SDS011;4343;53.648;10.098;2023-06-22T03:04:31;3.30;;;3.10;;
8610;SDS011;4343;53.648;10.098;2023-06-22T03:06:56;3.55;;;3.35;;
8610;SDS011;4343;53.648;10.098;2023-06-22T03:09:25;4.10;;;3.90;;
8610;SDS011;4343;53.648;10.098;2023-06-22T03:11:52;4.20;;;3.80;;
8610;SDS011;4343;53.648;10.098;2023-06-22T03:14:18;3.85;;;3.65;;
8610;SDS011;4343;53.648;10.098;2023-06-22T03:16:44;4.43;;;4.13;;
8610;SDS011;4343;53.648;10.098;2023-06-22T03:19:09;4.22;;;3.95;;
8610;SDS011;4343;53.648;10.098;2023-06-22T03:21:36;4.15;;;3.85;;
8610;SDS011;4343;53.648;10.098;2023-06-22T03:24:03;3.88;;;3.75;;
8610;SDS011;4343;53.648;10.098;2023-06-22T03:26:29;3.90;;;3.70;;
8610;SDS011;4343;53.648;10.098;2023-06-22T03:28:55;3.92;;;3.80;;
8610;SDS011;4343;53.648;10.098;2023-06-22T03:31:21;4.22;;;3.92;;
8610;SDS011;4343;53.648;10.098;2023-06-22T03:33:50;4.03;;;3.67;;
8610;SDS011;4343;53.648;10.098;2023-06-22T03:36:16;3.95;;;3.75;;
8610;SDS011;4343;53.648;10.098;2023-06-22T03:38:45;4.45;;;4.15;;
8610;SDS011;4343;53.648;10.098;2023-06-22T03:41:12;4.40;;;4.10;;
8610;SDS011;4343;53.648;10.098;2023-06-22T03:43:37;4.28;;;4.07;;
8610;SDS011;4343;53.648;10.098;2023-06-22T03:46:03;4.25;;;4.05;;
8610;SDS011;4343;53.648;10.098;2023-06-22T03:48:29;3.88;;;3.67;;
8610;SDS011;4343;53.648;10.098;2023-06-22T03:50:54;4.25;;;4.05;;
8610;SDS011;4343;53.648;10.098;2023-06-22T03:53:20;4.40;;;4.20;;
8610;SDS011;4343;53.648;10.098;2023-06-22T03:55:49;4.00;;;3.75;;
8610;SDS011;4343;53.648;10.098;2023-06-22T03:58:17;4.32;;;4.13;;
8610;SDS011;4343;53.648;10.098;2023-06-22T04:00:44;4.35;;;4.05;;
8610;SDS011;4343;53.648;10.098;2023-06-22T04:03:11;4.93;;;4.63;;
8610;SDS011;4343;53.648;10.098;2023-06-22T04:05:37;4.45;;;4.15;;
8610;SDS011;4343;53.648;10.098;2023-06-22T04:08:04;4.13;;;3.80;;
8610;SDS011;4343;53.648;10.098;2023-06-22T04:10:30;4.55;;;4.22;;
8610;SDS011;4343;53.648;10.098;2023-06-22T04:12:55;4.32;;;4.13;;
8610;SDS011;4343;53.648;10.098;2023-06-22T04:15:21;4.97;;;4.57;;
8610;SDS011;4343;53.648;10.098;2023-06-22T04:17:47;4.57;;;4.28;;
8610;SDS011;4343;53.648;10.098;2023-06-22T04:20:12;4.55;;;4.32;;
8610;SDS011;4343;53.648;10.098;2023-06-22T04:22:38;5.03;;;4.72;;
8610;SDS011;4343;53.648;10.098;2023-06-22T04:25:03;4.60;;;4.30;;
8610;SDS011;4343;53.648;10.098;2023-06-22T04:27:30;5.07;;;4.78;;
8610;SDS011;4343;53.648;10.098;2023-06-22T04:29:56;4.82;;;4.45;;
8610;SDS011;4343;53.648;10.098;2023-06-22T04:32:25;5.63;;;5.22;;
8610;SDS011;4343;53.648;10.098;2023-06-22T04:34:50;4.93;;;4.63;;
8610;SDS011;4343;53.648;10.098;2023-06-22T04:37:17;4.75;;;4.45;;
8610;SDS011;4343;53.648;10.098;2023-06-22T04:39:43;5.63;;;5.20;;
8610;SDS011;4343;53.648;10.098;2023-06-22T04:42:08;5.05;;;4.65;;
8610;SDS011;4343;53.648;10.098;2023-06-22T04:44:34;4.40;;;4.10;;
8610;SDS011;4343;53.648;10.098;2023-06-22T04:47:01;5.03;;;4.70;;
8610;SDS011;4343;53.648;10.098;2023-06-22T04:49:33;5.40;;;4.90;;
8610;SDS011;4343;53.648;10.098;2023-06-22T04:52:07;5.20;;;4.90;;
8610;SDS011;4343;53.648;10.098;2023-06-22T04:54:35;5.30;;;4.90;;
8610;SDS011;4343;53.648;10.098;2023-06-22T04:57:02;4.45;;;4.20;;
8610;SDS011;4343;53.648;10.098;2023-06-22T04:59:30;4.82;;;4.53;;
8610;SDS011;4343;53.648;10.098;2023-06-22T05:01:56;4.47;;;4.18;;
8610;SDS011;4343;53.648;10.098;2023-06-22T05:04:23;4.13;;;3.92;;
8610;SDS011;4343;53.648;10.098;2023-06-22T05:06:52;5.03;;;4.65;;
8610;SDS011;4343;53.648;10.098;2023-06-22T05:09:20;4.38;;;4.13;;
8610;SDS011;4343;53.648;10.098;2023-06-22T05:11:46;4.25;;;4.05;;
8610;SDS011;4343;53.648;10.098;2023-06-22T05:14:12;3.75;;;3.65;;
8610;SDS011;4343;53.648;10.098;2023-06-22T05:16:38;3.97;;;3.58;;
8610;SDS011;4343;53.648;10.098;2023-06-22T05:19:04;3.60;;;3.40;;
8610;SDS011;4343;53.648;10.098;2023-06-22T05:21:30;4.18;;;3.85;;
8610;SDS011;4343;53.648;10.098;2023-06-22T05:23:56;3.20;;;3.05;;
8610;SDS011;4343;53.648;10.098;2023-06-22T05:26:27;3.22;;;3.13;;
8610;SDS011;4343;53.648;10.098;2023-06-22T05:28:53;3.50;;;3.20;;
8610;SDS011;4343;53.648;10.098;2023-06-22T05:31:19;3.83;;;3.53;;
8610;SDS011;4343;53.648;10.098;2023-06-22T05:33:45;3.40;;;3.20;;
8610;SDS011;4343;53.648;10.098;2023-06-22T05:36:11;3.40;;;3.30;;
8610;SDS011;4343;53.648;10.098;2023-06-22T05:38:40;3.63;;;3.15;;
8610;SDS011;4343;53.648;10.098;2023-06-22T05:41:06;4.00;;;3.70;;
8610;SDS011;4343;53.648;10.098;2023-06-22T05:43:32;3.17;;;2.97;;
8610;SDS011;4343;53.648;10.098;2023-06-22T05:45:58;2.58;;;2.42;;
8610;SDS011;4343;53.648;10.098;2023-06-22T05:48:24;2.97;;;2.78;;
8610;SDS011;4343;53.648;10.098;2023-06-22T05:50:50;3.30;;;3.10;;
8610;SDS011;4343;53.648;10.098;2023-06-22T05:53:16;2.60;;;2.40;;
8610;SDS011;4343;53.648;10.098;2023-06-22T05:55:41;2.60;;;2.50;;
8610;SDS011;4343;53.648;10.098;2023-06-22T05:58:07;2.80;;;2.70;;
8610;SDS011;4343;53.648;10.098;2023-06-22T06:00:33;2.58;;;2.38;;
8610;SDS011;4343;53.648;10.098;2023-06-22T06:02:58;3.17;;;2.40;;
8610;SDS011;4343;53.648;10.098;2023-06-22T06:05:28;2.70;;;2.60;;
8610;SDS011;4343;53.648;10.098;2023-06-22T06:07:59;2.55;;;2.45;;
8610;SDS011;4343;53.648;10.098;2023-06-22T06:10:25;2.20;;;2.10;;
8610;SDS011;4343;53.648;10.098;2023-06-22T06:12:51;2.30;;;2.20;;
8610;SDS011;4343;53.648;10.098;2023-06-22T06:15:17;2.42;;;2.33;;
8610;SDS011;4343;53.648;10.098;2023-06-22T06:17:46;2.40;;;2.30;;
8610;SDS011;4343;53.648;10.098;2023-06-22T06:20:19;2.38;;;2.28;;
8610;SDS011;4343;53.648;10.098;2023-06-22T06:22:48;2.45;;;2.35;;
8610;SDS011;4343;53.648;10.098;2023-06-22T06:25:14;2.63;;;2.53;;
8610;SDS011;4343;53.648;10.098;2023-06-22T06:27:41;2.63;;;2.40;;
8610;SDS011;4343;53.648;10.098;2023-06-22T06:30:08;2.83;;;2.25;;
8610;SDS011;4343;53.648;10.098;2023-06-22T06:32:35;2.83;;;2.50;;
8610;SDS011;4343;53.648;10.098;2023-06-22T06:35:01;2.70;;;2.60;;
8610;SDS011;4343;53.648;10.098;2023-06-22T06:37:26;2.10;;;2.00;;
8610;SDS011;4343;53.648;10.098;2023-06-22T06:39:52;2.70;;;2.50;;
8610;SDS011;4343;53.648;10.098;2023-06-22T06:42:18;2.50;;;2.30;;
8610;SDS011;4343;53.648;10.098;2023-06-22T06:44:44;2.50;;;2.40;;
8610;SDS011;4343;53.648;10.098;2023-06-22T06:47:10;2.28;;;2.17;;
8610;SDS011;4343;53.648;10.098;2023-06-22T06:49:36;2.40;;;2.30;;
8610;SDS011;4343;53.648;10.098;2023-06-22T06:52:01;3.15;;;2.95;;
8610;SDS011;4343;53.648;10.098;2023-06-22T06:54:27;2.50;;;2.30;;
8610;SDS011;4343;53.648;10.098;2023-06-22T06:56:52;2.20;;;2.10;;
8610;SDS011;4343;53.648;10.098;2023-06-22T06:59:18;2.38;;;2.28;;
8610;SDS011;4343;53.648;10.098;2023-06-22T07:01:44;2.47;;;2.38;;
8610;SDS011;4343;53.648;10.098;2023-06-22T07:04:09;2.55;;;2.42;;
8610;SDS011;4343;53.648;10.098;2023-06-22T07:06:35;2.13;;;2.00;;
8610;SDS011;4343;53.648;10.098;2023-06-22T07:09:01;2.00;;;2.00;;
8610;SDS011;4343;53.648;10.098;2023-06-22T07:11:27;2.47;;;2.28;;
8610;SDS011;4343;53.648;10.098;2023-06-22T07:13:52;2.40;;;2.40;;
8610;SDS011;4343;53.648;10.098;2023-06-22T07:16:18;2.55;;;2.40;;
8610;SDS011;4343;53.648;10.098;2023-06-22T07:18:43;2.28;;;2.17;;
8610;SDS011;4343;53.648;10.098;2023-06-22T07:21:09;2.28;;;2.22;;
8610;SDS011;4343;53.648;10.098;2023-06-22T07:23:34;2.15;;;2.05;;
8610;SDS011;4343;53.648;10.098;2023-06-22T07:26:00;2.53;;;2.42;;
8610;SDS011;4343;53.648;10.098;2023-06-22T07:28:31;2.55;;;2.45;;
8610;SDS011;4343;53.648;10.098;2023-06-22T07:31:01;2.50;;;2.40;;
8610;SDS011;4343;53.648;10.098;2023-06-22T07:33:28;2.45;;;2.25;;
8610;SDS011;4343;53.648;10.098;2023-06-22T07:35:54;2.47;;;2.38;;
8610;SDS011;4343;53.648;10.098;2023-06-22T07:38:19;3.00;;;2.78;;
8610;SDS011;4343;53.648;10.098;2023-06-22T07:40:45;2.40;;;2.30;;
8610;SDS011;4343;53.648;10.098;2023-06-22T07:43:10;2.78;;;2.63;;
8610;SDS011;4343;53.648;10.098;2023-06-22T07:45:37;2.60;;;2.40;;
8610;SDS011;4343;53.648;10.098;2023-06-22T07:48:05;2.30;;;2.20;;
8610;SDS011;4343;53.648;10.098;2023-06-22T07:50:30;2.70;;;2.60;;
8610;SDS011;4343;53.648;10.098;2023-06-22T07:52:56;2.55;;;2.45;;
8610;SDS011;4343;53.648;10.098;2023-06-22T07:55:21;3.00;;;2.70;;
8610;SDS011;4343;53.648;10.098;2023-06-22T07:57:48;2.65;;;2.53;;
8610;SDS011;4343;53.648;10.098;2023-06-22T08:00:14;2.80;;;2.70;;
8610;SDS011;4343;53.648;10.098;2023-06-22T08:02:41;2.30;;;2.20;;
8610;SDS011;4343;53.648;10.098;2023-06-22T08:05:08;2.60;;;2.50;;
8610;SDS011;4343;53.648;10.098;2023-06-22T08:07:35;2.63;;;2.42;;
8610;SDS011;4343;53.648;10.098;2023-06-22T08:10:02;2.30;;;2.20;;
8610;SDS011;4343;53.648;10.098;2023-06-22T08:12:29;2.70;;;2.50;;
8610;SDS011;4343;53.648;10.098;2023-06-22T08:14:55;2.67;;;2.47;;
8610;SDS011;4343;53.648;10.098;2023-06-22T08:17:21;2.78;;;2.67;;
8610;SDS011;4343;53.648;10.098;2023-06-22T08:19:50;2.50;;;2.40;;
8610;SDS011;4343;53.648;10.098;2023-06-22T08:22:15;2.58;;;2.45;;
8610;SDS011;4343;53.648;10.098;2023-06-22T08:24:41;2.50;;;2.30;;
8610;SDS011;4343;53.648;10.098;2023-06-22T08:27:07;2.78;;;2.65;;
8610;SDS011;4343;53.648;10.098;2023-06-22T08:29:41;2.22;;;2.13;;
8610;SDS011;4343;53.648;10.098;2023-06-22T08:32:10;2.20;;;2.10;;
8610;SDS011;4343;53.648;10.098;2023-06-22T08:34:37;2.20;;;2.10;;
8610;SDS011;4343;53.648;10.098;2023-06-22T08:37:07;3.47;;;2.38;;
8610;SDS011;4343;53.648;10.098;2023-06-22T08:39:35;2.33;;;2.13;;
8610;SDS011;4343;53.648;10.098;2023-06-22T08:42:01;2.05;;;1.90;;
8610;SDS011;4343;53.648;10.098;2023-06-22T08:44:26;2.28;;;2.10;;
8610;SDS011;4343;53.648;10.098;2023-06-22T08:46:52;3.03;;;2.83;;
8610;SDS011;4343;53.648;10.098;2023-06-22T08:49:17;2.40;;;2.20;;
8610;SDS011;4343;53.648;10.098;2023-06-22T08:51:43;2.35;;;2.25;;
8610;SDS011;4343;53.648;10.098;2023-06-22T08:54:10;2.85;;;2.70;;
8610;SDS011;4343;53.648;10.098;2023-06-22T08:56:36;2.22;;;2.13;;
8610;SDS011;4343;53.648;10.098;2023-06-22T08:59:01;2.08;;;1.98;;
8610;SDS011;4343;53.648;10.098;2023-06-22T09:01:27;2.78;;;2.30;;
8610;SDS011;4343;53.648;10.098;2023-06-22T09:03:53;2.30;;;2.20;;
8610;SDS011;4343;53.648;10.098;2023-06-22T09:06:22;2.35;;;2.25;;
8610;SDS011;4343;53.648;10.098;2023-06-22T09:08:49;2.10;;;2.00;;
8610;SDS011;4343;53.648;10.098;2023-06-22T09:11:14;2.13;;;2.08;;
8610;SDS011;4343;53.648;10.098;2023-06-22T09:13:40;2.28;;;2.17;;
8610;SDS011;4343;53.648;10.098;2023-06-22T09:16:05;2.30;;;2.20;;
8610;SDS011;4343;53.648;10.098;2023-06-22T09:18:31;3.63;;;2.22;;
8610;SDS011;4343;53.648;10.098;2023-06-22T09:20:57;2.60;;;2.28;;
8610;SDS011;4343;53.648;10.098;2023-06-22T09:23:22;2.50;;;2.40;;
8610;SDS011;4343;53.648;10.098;2023-06-22T09:25:48;2.30;;;2.20;;
8610;SDS011;4343;53.648;10.098;2023-06-22T09:28:14;2.65;;;2.30;;
8610;SDS011;4343;53.648;10.098;2023-06-22T09:30:40;2.60;;;2.10;;
8610;SDS011;4343;53.648;10.098;2023-06-22T09:33:05;2.15;;;2.05;;
8610;SDS011;4343;53.648;10.098;2023-06-22T09:35:31;1.98;;;1.88;;
8610;SDS011;4343;53.648;10.098;2023-06-22T09:37:56;2.40;;;2.30;;
8610;SDS011;4343;53.648;10.098;2023-06-22T09:40:22;1.98;;;1.98;;
8610;SDS011;4343;53.648;10.098;2023-06-22T09:42:47;2.45;;;2.28;;
8610;SDS011;4343;53.648;10.098;2023-06-22T09:45:13;1.90;;;1.90;;
8610;SDS011;4343;53.648;10.098;2023-06-22T09:47:38;2.47;;;2.42;;
8610;SDS011;4343;53.648;10.098;2023-06-22T09:50:05;2.38;;;2.28;;
8610;SDS011;4343;53.648;10.098;2023-06-22T09:52:31;2.40;;;2.30;;
8610;SDS011;4343;53.648;10.098;2023-06-22T09:54:56;2.50;;;2.40;;
8610;SDS011;4343;53.648;10.098;2023-06-22T09:57:22;2.20;;;2.10;;
8610;SDS011;4343;53.648;10.098;2023-06-22T09:59:47;2.70;;;2.50;;
8610;SDS011;4343;53.648;10.098;2023-06-22T10:02:13;2.67;;;2.45;;
8610;SDS011;4343;53.648;10.098;2023-06-22T10:04:38;2.78;;;2.67;;
8610;SDS011;4343;53.648;10.098;2023-06-22T10:07:05;2.15;;;2.15;;
8610;SDS011;4343;53.648;10.098;2023-06-22T10:09:31;2.60;;;2.50;;
8610;SDS011;4343;53.648;10.098;2023-06-22T10:11:56;2.30;;;2.20;;
8610;SDS011;4343;53.648;10.098;2023-06-22T10:14:22;2.10;;;2.00;;
8610;SDS011;4343;53.648;10.098;2023-06-22T10:16:48;2.58;;;2.42;;
8610;SDS011;4343;53.648;10.098;2023-06-22T10:19:13;2.30;;;2.13;;
8610;SDS011;4343;53.648;10.098;2023-06-22T10:21:39;2.45;;;2.35;;
8610;SDS011;4343;53.648;10.098;2023-06-22T10:24:04;2.70;;;2.60;;
8610;SDS011;4343;53.648;10.098;2023-06-22T10:26:34;3.35;;;2.58;;
8610;SDS011;4343;53.648;10.098;2023-06-22T10:29:00;2.50;;;2.40;;
8610;SDS011;4343;53.648;10.098;2023-06-22T10:31:29;2.55;;;2.38;;
8610;SDS011;4343;53.648;10.098;2023-06-22T10:33:55;2.65;;;2.53;;
8610;SDS011;4343;53.648;10.098;2023-06-22T10:36:21;2.45;;;2.25;;
8610;SDS011;4343;53.648;10.098;2023-06-22T10:38:47;2.38;;;2.25;;
8610;SDS011;4343;53.648;10.098;2023-06-22T10:41:13;2.78;;;2.58;;
8610;SDS011;4343;53.648;10.098;2023-06-22T10:43:39;2.72;;;2.53;;
8610;SDS011;4343;53.648;10.098;2023-06-22T10:46:06;4.13;;;2.63;;
8610;SDS011;4343;53.648;10.098;2023-06-22T10:48:32;2.50;;;2.30;;
8610;SDS011;4343;53.648;10.098;2023-06-22T10:50:58;2.53;;;2.42;;
8610;SDS011;4343;53.648;10.098;2023-06-22T10:53:23;2.47;;;2.38;;
8610;SDS011;4343;53.648;10.098;2023-06-22T10:55:49;3.08;;;2.90;;
8610;SDS011;4343;53.648;10.098;2023-06-22T10:58:14;2.53;;;2.38;;
8610;SDS011;4343;53.648;10.098;2023-06-22T11:00:40;2.30;;;2.20;;
8610;SDS011;4343;53.648;10.098;2023-06-22T11:03:05;2.60;;;2.50;;
8610;SDS011;4343;53.648;10.098;2023-06-22T11:05:31;2.30;;;2.30;;
8610;SDS011;4343;53.648;10.098;2023-06-22T11:07:57;2.58;;;2.42;;
8610;SDS011;4343;53.648;10.098;2023-06-22T11:10:22;2.67;;;2.50;;
8610;SDS011;4343;53.648;10.098;2023-06-22T11:12:48;3.30;;;3.03;;
8610;SDS011;4343;53.648;10.098;2023-06-22T11:15:13;2.97;;;2.83;;
8610;SDS011;4343;53.648;10.098;2023-06-22T11:17:39;3.00;;;2.80;;
8610;SDS011;4343;53.648;10.098;2023-06-22T11:20:05;2.80;;;2.70;;
8610;SDS011;4343;53.648;10.098;2023-06-22T11:22:39;3.00;;;2.80;;
8610;SDS011;4343;53.648;10.098;2023-06-22T11:25:05;3.13;;;2.90;;
8610;SDS011;4343;53.648;10.098;2023-06-22T11:27:31;6.10;;;2.90;;
8610;SDS011;4343;53.648;10.098;2023-06-22T11:29:57;3.15;;;2.95;;
8610;SDS011;4343;53.648;10.098;2023-06-22T11:32:22;3.10;;;2.78;;
8610;SDS011;4343;53.648;10.098;2023-06-22T11:34:48;2.50;;;2.40;;
8610;SDS011;4343;53.648;10.098;2023-06-22T11:37:14;7.90;;;3.72;;
8610;SDS011;4343;53.648;10.098;2023-06-22T11:39:40;2.70;;;2.60;;
8610;SDS011;4343;53.648;10.098;2023-06-22T11:42:06;3.30;;;3.10;;
8610;SDS011;4343;53.648;10.098;2023-06-22T11:44:32;3.22;;;2.83;;
8610;SDS011;4343;53.648;10.098;2023-06-22T11:46:57;3.20;;;3.00;;
8610;SDS011;4343;53.648;10.098;2023-06-22T11:49:22;3.67;;;3.03;;
8610;SDS011;4343;53.648;10.098;2023-06-22T11:51:48;3.28;;;3.08;;
8610;SDS011;4343;53.648;10.098;2023-06-22T11:54:13;3.17;;;3.08;;
8610;SDS011;4343;53.648;10.098;2023-06-22T11:56:39;3.22;;;3.03;;
8610;SDS011;4343;53.648;10.098;2023-06-22T11:59:04;3.38;;;3.17;;
8610;SDS011;4343;53.648;10.098;2023-06-22T12:01:30;3.00;;;2.90;;
8610;SDS011;4343;53.648;10.098;2023-06-22T12:03:58;3.35;;;3.25;;
8610;SDS011;4343;53.648;10.098;2023-06-22T12:06:23;3.33;;;2.83;;
8610;SDS011;4343;53.648;10.098;2023-06-22T12:08:49;3.35;;;3.15;;
8610;SDS011;4343;53.648;10.098;2023-06-22T12:11:14;2.90;;;2.80;;
8610;SDS011;4343;53.648;10.098;2023-06-22T12:13:40;3.13;;;2.92;;
8610;SDS011;4343;53.648;10.098;2023-06-22T12:16:05;3.15;;;3.05;;
8610;SDS011;4343;53.648;10.098;2023-06-22T12:18:32;3.30;;;3.00;;
8610;SDS011;4343;53.648;10.098;2023-06-22T12:20:58;3.00;;;2.90;;
8610;SDS011;4343;53.648;10.098;2023-06-22T12:23:23;3.28;;;3.03;;
8610;SDS011;4343;53.648;10.098;2023-06-22T12:25:48;3.40;;;3.30;;
8610;SDS011;4343;53.648;10.098;2023-06-22T12:28:14;3.50;;;3.30;;
8610;SDS011;4343;53.648;10.098;2023-06-22T12:30:39;2.88;;;2.78;;
8610;SDS011;4343;53.648;10.098;2023-06-22T12:33:05;3.70;;;3.40;;
8610;SDS011;4343;53.648;10.098;2023-06-22T12:35:30;3.15;;;3.05;;
8610;SDS011;4343;53.648;10.098;2023-06-22T12:37:56;3.40;;;3.30;;
8610;SDS011;4343;53.648;10.098;2023-06-22T12:40:22;3.17;;;3.08;;
8610;SDS011;4343;53.648;10.098;2023-06-22T12:42:47;3.28;;;3.17;;
8610;SDS011;4343;53.648;10.098;2023-06-22T12:45:13;3.60;;;3.30;;
8610;SDS011;4343;53.648;10.098;2023-06-22T12:47:38;3.78;;;3.60;;
8610;SDS011;4343;53.648;10.098;2023-06-22T12:50:04;4.45;;;4.00;;
8610;SDS011;4343;53.648;10.098;2023-06-22T12:52:30;3.88;;;3.67;;
8610;SDS011;4343;53.648;10.098;2023-06-22T12:54:59;3.22;;;3.13;;
8610;SDS011;4343;53.648;10.098;2023-06-22T12:57:24;3.30;;;3.05;;
8610;SDS011;4343;53.648;10.098;2023-06-22T12:59:50;3.47;;;3.28;;
8610;SDS011;4343;53.648;10.098;2023-06-22T13:02:16;3.78;;;3.53;;
8610;SDS011;4343;53.648;10.098;2023-06-22T13:04:41;3.80;;;3.60;;
8610;SDS011;4343;53.648;10.098;2023-06-22T13:07:07;3.55;;;3.25;;
8610;SDS011;4343;53.648;10.098;2023-06-22T13:09:33;3.65;;;3.45;;
8610;SDS011;4343;53.648;10.098;2023-06-22T13:12:01;3.55;;;3.35;;
8610;SDS011;4343;53.648;10.098;2023-06-22T13:14:27;3.60;;;3.45;;
8610;SDS011;4343;53.648;10.098;2023-06-22T13:16:52;3.08;;;2.80;;
8610;SDS011;4343;53.648;10.098;2023-06-22T13:19:18;3.53;;;3.33;;
8610;SDS011;4343;53.648;10.098;2023-06-22T13:21:43;4.25;;;4.05;;
8610;SDS011;4343;53.648;10.098;2023-06-22T13:24:09;3.45;;;3.35;;
8610;SDS011;4343;53.648;10.098;2023-06-22T13:26:34;4.10;;;3.80;;
8610;SDS011;4343;53.648;10.098;2023-06-22T13:29:00;3.83;;;3.53;;
8610;SDS011;4343;53.648;10.098;2023-06-22T13:31:25;3.28;;;3.17;;
8610;SDS011;4343;53.648;10.098;2023-06-22T13:33:51;4.85;;;3.72;;
8610;SDS011;4343;53.648;10.098;2023-06-22T13:36:17;4.65;;;4.25;;
8610;SDS011;4343;53.648;10.098;2023-06-22T13:38:43;3.50;;;3.30;;
8610;SDS011;4343;53.648;10.098;2023-06-22T13:41:09;3.65;;;3.45;;
8610;SDS011;4343;53.648;10.098;2023-06-22T13:43:34;3.60;;;3.40;;
8610;SDS011;4343;53.648;10.098;2023-06-22T13:46:00;3.42;;;3.28;;
8610;SDS011;4343;53.648;10.098;2023-06-22T13:48:25;3.50;;;3.30;;
8610;SDS011;4343;53.648;10.098;2023-06-22T13:50:51;3.75;;;3.55;;
8610;SDS011;4343;53.648;10.098;2023-06-22T13:53:17;3.90;;;3.72;;
8610;SDS011;4343;53.648;10.098;2023-06-22T13:55:42;3.42;;;3.22;;
8610;SDS011;4343;53.648;10.098;2023-06-22T13:58:08;3.80;;;3.55;;
8610;SDS011;4343;53.648;10.098;2023-06-22T14:00:33;3.30;;;3.10;;
8610;SDS011;4343;53.648;10.098;2023-06-22T14:02:59;3.38;;;3.28;;
8610;SDS011;4343;53.648;10.098;2023-06-22T14:05:24;3.75;;;3.40;;
8610;SDS011;4343;53.648;10.098;2023-06-22T14:07:50;10.40;;;4.13;;
8610;SDS011;4343;53.648;10.098;2023-06-22T14:10:15;15.68;;;4.78;;
8610;SDS011;4343;53.648;10.098;2023-06-22T14:12:41;5.78;;;4.15;;
8610;SDS011;4343;53.648;10.098;2023-06-22T14:15:06;13.55;;;4.82;;
8610;SDS011;4343;53.648;10.098;2023-06-22T14:17:32;15.20;;;4.78;;
8610;SDS011;4343;53.648;10.098;2023-06-22T14:19:58;6.45;;;4.10;;
8610;SDS011;4343;53.648;10.098;2023-06-22T14:22:23;4.13;;;3.92;;
8610;SDS011;4343;53.648;10.098;2023-06-22T14:24:49;4.72;;;4.07;;
8610;SDS011;4343;53.648;10.098;2023-06-22T14:27:15;4.20;;;3.97;;
8610;SDS011;4343;53.648;10.098;2023-06-22T14:29:41;3.70;;;3.50;;
8610;SDS011;4343;53.648;10.098;2023-06-22T14:32:07;4.85;;;3.63;;
8610;SDS011;4343;53.648;10.098;2023-06-22T14:34:33;4.55;;;4.15;;
8610;SDS011;4343;53.648;10.098;2023-06-22T14:37:01;3.67;;;3.45;;
8610;SDS011;4343;53.648;10.098;2023-06-22T14:39:27;4.32;;;4.03;;
8610;SDS011;4343;53.648;10.098;2023-06-22T14:41:53;3.78;;;3.45;;
8610;SDS011;4343;53.648;10.098;2023-06-22T14:44:18;3.47;;;2.90;;
8610;SDS011;4343;53.648;10.098;2023-06-22T14:46:44;3.25;;;3.15;;
8610;SDS011;4343;53.648;10.098;2023-06-22T14:49:09;11.48;;;4.15;;
8610;SDS011;4343;53.648;10.098;2023-06-22T14:51:35;3.40;;;3.30;;
8610;SDS011;4343;53.648;10.098;2023-06-22T14:54:00;3.40;;;3.30;;
8610;SDS011;4343;53.648;10.098;2023-06-22T14:56:26;3.95;;;3.50;;
8610;SDS011;4343;53.648;10.098;2023-06-22T14:58:51;3.45;;;3.20;;
8610;SDS011;4343;53.648;10.098;2023-06-22T15:01:17;4.65;;;3.65;;